^^
Station Historical Data
Daily Summary for February 22, 2018 Units:  Both    English   Metric
« Previous Day
Next Day »
Daily Weekly Monthly Yearly Custom
  High: Low: Average:
Temperature: TemperatureF °F /  -17.8 °C 65.7 °F /  18.7 °C 78.5 °F /  25.8 °C
Dew Point: DewpointF °F /  -17.8 °C 38.1 °F /  3.4 °C 48.2 °F /  9 °C
Humidity: Humidity% 19% 38%
Wind Speed: WindSpeedMPHmph /  0km/h - 2.3mph /  3.7km/h
Wind Gust: WindSpeedGustMPHmph /  0km/h - -
Wind- - SSE
Pressure: PressureIn in /  0 hPa 29.46 in /  997.5 hPa -
Precipitation: 0.00 in /  0 mm    
Historical Graphs
 
 
Tabular Data for February 22, 2018
Time Temperature Dew Point Pressure Wind Wind Speed Wind Gust Humidity Rainfall Rate (Hourly) solar Conditions
TemperatureF °F /  -17.8 °C DewpointF °F /  -17.8 °C PressureInin /  0hPa Calm     Humidity% HourlyPrecipInin /  0mm SolarRadiationWatts/m^2 W/m2 Conditions
00:04 77.4 °F /  25.2 °C 40.8 °F /  4.9 °C 29.59in /  1001.9hPa Calm   4.0mph /  6.4km/h 27% 0.00in /  0mm 0.0 W/m2
00:09 77.4 °F /  25.2 °C 40.8 °F /  4.9 °C 29.59in /  1001.9hPa Calm   4.0mph /  6.4km/h 27% 0.00in /  0mm 0.0 W/m2
00:14 77.4 °F /  25.2 °C 40.8 °F /  4.9 °C 29.59in /  1001.9hPa SE 2.9mph /  4.7km/h 5.0mph /  8km/h 27% 0.00in /  0mm 0.0 W/m2
00:20 77.4 °F /  25.2 °C 40.8 °F /  4.9 °C 29.58in /  1001.6hPa Calm   4.0mph /  6.4km/h 27% 0.00in /  0mm 0.0 W/m2
00:25 77.2 °F /  25.1 °C 40.6 °F /  4.8 °C 29.59in /  1001.9hPa SE 0.9mph /  1.4km/h 4.0mph /  6.4km/h 27% 0.00in /  0mm 0.0 W/m2
00:30 76.8 °F /  24.9 °C 40.3 °F /  4.6 °C 29.59in /  1001.9hPa SE 4.0mph /  6.4km/h 6.0mph /  9.7km/h 27% 0.00in /  0mm 0.0 W/m2
00:35 76.6 °F /  24.8 °C 38.1 °F /  3.4 °C 29.59in /  1001.9hPa SE 2.9mph /  4.7km/h 6.0mph /  9.7km/h 25% 0.00in /  0mm 0.0 W/m2
00:40 76.8 °F /  24.9 °C 38.3 °F /  3.5 °C 29.59in /  1001.9hPa SE 2.0mph /  3.2km/h 4.0mph /  6.4km/h 25% 0.00in /  0mm 0.0 W/m2
00:45 76.8 °F /  24.9 °C 38.3 °F /  3.5 °C 29.59in /  1001.9hPa ESE 2.9mph /  4.7km/h 8.0mph /  12.9km/h 25% 0.00in /  0mm 0.0 W/m2
00:50 76.8 °F /  24.9 °C 38.3 °F /  3.5 °C 29.59in /  1001.9hPa SE 0.9mph /  1.4km/h 2.0mph /  3.2km/h 25% 0.00in /  0mm 0.0 W/m2
00:55 76.8 °F /  24.9 °C 39.4 °F /  4.1 °C 29.59in /  1001.9hPa ESE 2.0mph /  3.2km/h 4.0mph /  6.4km/h 26% 0.00in /  0mm 0.0 W/m2
01:00 76.6 °F /  24.8 °C 39.2 °F /  4 °C 29.59in /  1001.9hPa SE 0.9mph /  1.4km/h 5.0mph /  8km/h 26% 0.00in /  0mm 0.0 W/m2
01:05 76.6 °F /  24.8 °C 40.1 °F /  4.5 °C 29.59in /  1001.9hPa Calm   4.0mph /  6.4km/h 27% 0.00in /  0mm 0.0 W/m2
01:10 76.5 °F /  24.7 °C 41.9 °F /  5.5 °C 29.59in /  1001.9hPa SE 0.9mph /  1.4km/h 3.0mph /  4.8km/h 29% 0.00in /  0mm 0.0 W/m2
01:16 76.5 °F /  24.7 °C 43.5 °F /  6.4 °C 29.58in /  1001.6hPa East 4.0mph /  6.4km/h 5.0mph /  8km/h 31% 0.00in /  0mm 0.0 W/m2
01:21 76.5 °F /  24.7 °C 44.4 °F /  6.9 °C 29.58in /  1001.6hPa ESE 8.1mph /  13km/h 9.0mph /  14.5km/h 32% 0.00in /  0mm 0.0 W/m2
01:26 76.5 °F /  24.7 °C 45.1 °F /  7.3 °C 29.58in /  1001.6hPa ESE 6.9mph /  11.1km/h 14.0mph /  22.5km/h 33% 0.00in /  0mm 0.0 W/m2
01:29 76.5 °F /  24.7 °C 45.1 °F /  7.3 °C 29.58in /  1001.6hPa ENE 2.0mph /  3.2km/h 11.0mph /  17.7km/h 33% 0.00in /  0mm 0.0 W/m2
01:34 76.5 °F /  24.7 °C 45.1 °F /  7.3 °C 29.57in /  1001.2hPa ESE 4.0mph /  6.4km/h 10.0mph /  16.1km/h 33% 0.00in /  0mm 0.0 W/m2
01:39 76.3 °F /  24.6 °C 45.1 °F /  7.3 °C 29.57in /  1001.2hPa ESE 6.0mph /  9.7km/h 8.0mph /  12.9km/h 33% 0.00in /  0mm 0.0 W/m2
01:44 76.3 °F /  24.6 °C 45.1 °F /  7.3 °C 29.57in /  1001.2hPa SE 4.0mph /  6.4km/h 11.0mph /  17.7km/h 33% 0.00in /  0mm 0.0 W/m2
01:49 75.9 °F /  24.4 °C 45.5 °F /  7.5 °C 29.57in /  1001.2hPa East 0.9mph /  1.4km/h 6.0mph /  9.7km/h 34% 0.00in /  0mm 0.0 W/m2
01:54 75.9 °F /  24.4 °C 45.5 °F /  7.5 °C 29.57in /  1001.2hPa ESE 2.0mph /  3.2km/h 6.0mph /  9.7km/h 34% 0.00in /  0mm 0.0 W/m2
02:00 75.6 °F /  24.2 °C 45.1 °F /  7.3 °C 29.57in /  1001.2hPa NNW 2.0mph /  3.2km/h 7.0mph /  11.3km/h 34% 0.00in /  0mm 0.0 W/m2
02:05 75.6 °F /  24.2 °C 46.0 °F /  7.8 °C 29.56in /  1000.9hPa Calm   3.0mph /  4.8km/h 35% 0.00in /  0mm 0.0 W/m2
02:10 75.2 °F /  24 °C 45.7 °F /  7.6 °C 29.56in /  1000.9hPa Calm   5.0mph /  8km/h 35% 0.00in /  0mm 0.0 W/m2
02:15 74.8 °F /  23.8 °C 46.0 °F /  7.8 °C 29.56in /  1000.9hPa ESE 4.0mph /  6.4km/h 8.0mph /  12.9km/h 36% 0.00in /  0mm 0.0 W/m2
02:20 74.7 °F /  23.7 °C 45.9 °F /  7.7 °C 29.56in /  1000.9hPa ENE 0.9mph /  1.4km/h 5.0mph /  8km/h 36% 0.00in /  0mm 0.0 W/m2
02:25 74.5 °F /  23.6 °C 45.9 °F /  7.7 °C 29.56in /  1000.9hPa East 2.9mph /  4.7km/h 5.0mph /  8km/h 36% 0.00in /  0mm 0.0 W/m2
02:30 74.1 °F /  23.4 °C 46.2 °F /  7.9 °C 29.56in /  1000.9hPa East 2.0mph /  3.2km/h 4.0mph /  6.4km/h 37% 0.00in /  0mm 0.0 W/m2
02:35 73.8 °F /  23.2 °C 45.9 °F /  7.7 °C 29.55in /  1000.6hPa NNE 2.9mph /  4.7km/h 6.0mph /  9.7km/h 37% 0.00in /  0mm 0.0 W/m2
02:40 73.6 °F /  23.1 °C 46.4 °F /  8 °C 29.55in /  1000.6hPa ESE 0.9mph /  1.4km/h 8.0mph /  12.9km/h 38% 0.00in /  0mm 0.0 W/m2
02:45 73.2 °F /  22.9 °C 46.8 °F /  8.2 °C 29.55in /  1000.6hPa NNW 6.9mph /  11.1km/h 7.0mph /  11.3km/h 39% 0.00in /  0mm 0.0 W/m2
02:51 73.2 °F /  22.9 °C 47.5 °F /  8.6 °C 29.55in /  1000.6hPa NNW 6.9mph /  11.1km/h 7.0mph /  11.3km/h 40% 0.00in /  0mm 0.0 W/m2
02:56 73.0 °F /  22.8 °C 48.0 °F /  8.9 °C 29.55in /  1000.6hPa ESE 4.0mph /  6.4km/h 12.0mph /  19.3km/h 41% 0.00in /  0mm 0.0 W/m2
03:01 73.0 °F /  22.8 °C 48.0 °F /  8.9 °C 29.55in /  1000.6hPa ENE 2.0mph /  3.2km/h 8.0mph /  12.9km/h 41% 0.00in /  0mm 0.0 W/m2
03:06 72.9 °F /  22.7 °C 48.4 °F /  9.1 °C 29.55in /  1000.6hPa SE 4.9mph /  7.9km/h 7.0mph /  11.3km/h 42% 0.00in /  0mm 0.0 W/m2
03:11 72.7 °F /  22.6 °C 48.2 °F /  9 °C 29.55in /  1000.6hPa ENE 2.9mph /  4.7km/h 8.0mph /  12.9km/h 42% 0.00in /  0mm 0.0 W/m2
03:16 72.5 °F /  22.5 °C 48.7 °F /  9.3 °C 29.55in /  1000.6hPa NE 4.0mph /  6.4km/h 6.0mph /  9.7km/h 43% 0.00in /  0mm 0.0 W/m2
03:21 72.3 °F /  22.4 °C 49.1 °F /  9.5 °C 29.55in /  1000.6hPa NE 4.0mph /  6.4km/h 6.0mph /  9.7km/h 44% 0.00in /  0mm 0.0 W/m2
03:26 72.1 °F /  22.3 °C 49.1 °F /  9.5 °C 29.55in /  1000.6hPa ENE 4.0mph /  6.4km/h 7.0mph /  11.3km/h 44% 0.00in /  0mm 0.0 W/m2
03:32 72.0 °F /  22.2 °C 48.9 °F /  9.4 °C 29.55in /  1000.6hPa Calm   1.0mph /  1.6km/h 44% 0.00in /  0mm 0.0 W/m2
03:37 71.8 °F /  22.1 °C 49.3 °F /  9.6 °C 29.55in /  1000.6hPa NE 4.9mph /  7.9km/h 5.0mph /  8km/h 45% 0.00in /  0mm 0.0 W/m2
03:42 71.4 °F /  21.9 °C 48.9 °F /  9.4 °C 29.56in /  1000.9hPa Calm   2.0mph /  3.2km/h 45% 0.00in /  0mm 0.0 W/m2
03:47 71.4 °F /  21.9 °C 48.9 °F /  9.4 °C 29.56in /  1000.9hPa WNW 0.9mph /  1.4km/h 2.0mph /  3.2km/h 45% 0.00in /  0mm 0.0 W/m2
03:52 71.1 °F /  21.7 °C 49.3 °F /  9.6 °C 29.56in /  1000.9hPa Calm   2.0mph /  3.2km/h 46% 0.00in /  0mm 0.0 W/m2
03:57 70.9 °F /  21.6 °C 49.1 °F /  9.5 °C 29.56in /  1000.9hPa Calm   1.0mph /  1.6km/h 46% 0.00in /  0mm 0.0 W/m2
04:02 70.5 °F /  21.4 °C 49.3 °F /  9.6 °C 29.56in /  1000.9hPa Calm   1.0mph /  1.6km/h 47% 0.00in /  0mm 0.0 W/m2
04:07 70.3 °F /  21.3 °C 49.1 °F /  9.5 °C 29.56in /  1000.9hPa Calm   5.0mph /  8km/h 47% 0.00in /  0mm 0.0 W/m2
04:13 70.2 °F /  21.2 °C 49.6 °F /  9.8 °C 29.56in /  1000.9hPa Calm   2.0mph /  3.2km/h 48% 0.00in /  0mm 0.0 W/m2
04:19 69.8 °F /  21 °C 49.3 °F /  9.6 °C 29.56in /  1000.9hPa Calm     48% 0.00in /  0mm 0.0 W/m2
04:24 69.6 °F /  20.9 °C 49.6 °F /  9.8 °C 29.56in /  1000.9hPa NNW 2.0mph /  3.2km/h 2.0mph /  3.2km/h 49% 0.00in /  0mm 0.0 W/m2
04:29 69.3 °F /  20.7 °C 49.8 °F /  9.9 °C 29.56in /  1000.9hPa Calm   3.0mph /  4.8km/h 50% 0.00in /  0mm 0.0 W/m2
04:34 69.1 °F /  20.6 °C 49.6 °F /  9.8 °C 29.57in /  1001.2hPa Calm   1.0mph /  1.6km/h 50% 0.00in /  0mm 0.0 W/m2
04:39 68.9 °F /  20.5 °C 50.0 °F /  10 °C 29.57in /  1001.2hPa Calm     51% 0.00in /  0mm 0.0 W/m2
04:44 68.7 °F /  20.4 °C 49.8 °F /  9.9 °C 29.57in /  1001.2hPa Calm     51% 0.00in /  0mm 0.0 W/m2
04:49 68.5 °F /  20.3 °C 50.2 °F /  10.1 °C 29.57in /  1001.2hPa Calm   1.0mph /  1.6km/h 52% 0.00in /  0mm 0.0 W/m2
04:55 68.4 °F /  20.2 °C 50.0 °F /  10 °C 29.58in /  1001.6hPa Calm     52% 0.00in /  0mm 0.0 W/m2
05:01 68.2 °F /  20.1 °C 50.4 °F /  10.2 °C 29.58in /  1001.6hPa Calm     53% 0.00in /  0mm 0.0 W/m2
05:06 67.8 °F /  19.9 °C 50.5 °F /  10.3 °C 29.58in /  1001.6hPa Calm   1.0mph /  1.6km/h 54% 0.00in /  0mm 0.0 W/m2
05:11 67.6 °F /  19.8 °C 50.4 °F /  10.2 °C 29.58in /  1001.6hPa ESE 0.9mph /  1.4km/h 1.0mph /  1.6km/h 54% 0.00in /  0mm 0.0 W/m2
05:16 67.6 °F /  19.8 °C 50.9 °F /  10.5 °C 29.58in /  1001.6hPa Calm   1.0mph /  1.6km/h 55% 0.00in /  0mm 0.0 W/m2
05:22 67.6 °F /  19.8 °C 50.9 °F /  10.5 °C 29.58in /  1001.6hPa NNW 0.9mph /  1.4km/h 2.0mph /  3.2km/h 55% 0.00in /  0mm 0.0 W/m2
05:27 67.6 °F /  19.8 °C 51.8 °F /  11 °C 29.59in /  1001.9hPa Calm   3.0mph /  4.8km/h 57% 0.00in /  0mm 0.0 W/m2
05:32 67.6 °F /  19.8 °C 52.3 °F /  11.3 °C 29.59in /  1001.9hPa NE 2.9mph /  4.7km/h 7.0mph /  11.3km/h 58% 0.00in /  0mm 0.0 W/m2
05:37 67.6 °F /  19.8 °C 52.9 °F /  11.6 °C 29.59in /  1001.9hPa ENE 6.0mph /  9.7km/h 8.0mph /  12.9km/h 59% 0.00in /  0mm 0.0 W/m2
05:42 67.6 °F /  19.8 °C 53.2 °F /  11.8 °C 29.59in /  1001.9hPa North 4.0mph /  6.4km/h 8.0mph /  12.9km/h 60% 0.00in /  0mm 0.0 W/m2
05:47 67.8 °F /  19.9 °C 54.0 °F /  12.2 °C 29.59in /  1001.9hPa ENE 6.0mph /  9.7km/h 8.0mph /  12.9km/h 61% 0.00in /  0mm 0.0 W/m2
05:52 67.8 °F /  19.9 °C 54.3 °F /  12.4 °C 29.59in /  1001.9hPa Calm   7.0mph /  11.3km/h 62% 0.00in /  0mm 0.0 W/m2
05:57 67.6 °F /  19.8 °C 54.7 °F /  12.6 °C 29.59in /  1001.9hPa ENE 0.9mph /  1.4km/h 5.0mph /  8km/h 63% 0.00in /  0mm 0.0 W/m2
06:02 67.6 °F /  19.8 °C 54.7 °F /  12.6 °C 29.59in /  1001.9hPa Calm   5.0mph /  8km/h 63% 0.00in /  0mm 0.0 W/m2
06:08 67.5 °F /  19.7 °C 54.9 °F /  12.7 °C 29.59in /  1001.9hPa NNE 2.0mph /  3.2km/h 4.0mph /  6.4km/h 64% 0.00in /  0mm 0.0 W/m2
06:13 67.3 °F /  19.6 °C 54.7 °F /  12.6 °C 29.59in /  1001.9hPa Calm   3.0mph /  4.8km/h 64% 0.00in /  0mm 0.0 W/m2
06:18 67.3 °F /  19.6 °C 55.0 °F /  12.8 °C 29.59in /  1001.9hPa Calm   2.0mph /  3.2km/h 65% 0.00in /  0mm 0.0 W/m2
06:23 67.1 °F /  19.5 °C 55.4 °F /  13 °C 29.59in /  1001.9hPa ENE 4.0mph /  6.4km/h 4.0mph /  6.4km/h 66% 0.00in /  0mm 0.0 W/m2
06:28 66.9 °F /  19.4 °C 55.6 °F /  13.1 °C 29.59in /  1001.9hPa ENE 2.9mph /  4.7km/h 7.0mph /  11.3km/h 67% 0.00in /  0mm 0.0 W/m2
06:33 66.7 °F /  19.3 °C 55.4 °F /  13 °C 29.59in /  1001.9hPa NE 2.0mph /  3.2km/h 6.0mph /  9.7km/h 67% 0.00in /  0mm 0.0 W/m2
06:38 66.7 °F /  19.3 °C 55.4 °F /  13 °C 29.58in /  1001.6hPa ESE 0.9mph /  1.4km/h 4.0mph /  6.4km/h 67% 0.00in /  0mm 0.0 W/m2
06:43 66.6 °F /  19.2 °C 55.2 °F /  12.9 °C 29.58in /  1001.6hPa ESE 0.9mph /  1.4km/h 3.0mph /  4.8km/h 67% 0.00in /  0mm 0.0 W/m2
06:48 66.6 °F /  19.2 °C 55.6 °F /  13.1 °C 29.58in /  1001.6hPa East 2.0mph /  3.2km/h 2.0mph /  3.2km/h 68% 0.00in /  0mm 0.0 W/m2
06:54 66.4 °F /  19.1 °C 55.6 °F /  13.1 °C 29.58in /  1001.6hPa ESE 2.0mph /  3.2km/h 4.0mph /  6.4km/h 68% 0.00in /  0mm 7.0 W/m2
06:59 66.0 °F /  18.9 °C 55.6 °F /  13.1 °C 29.58in /  1001.6hPa Calm   1.0mph /  1.6km/h 69% 0.00in /  0mm 11.0 W/m2
07:04 66.0 °F /  18.9 °C 55.6 °F /  13.1 °C 29.58in /  1001.6hPa ESE 0.9mph /  1.4km/h 2.0mph /  3.2km/h 69% 0.00in /  0mm 12.0 W/m2
07:09 65.8 °F /  18.8 °C 55.4 °F /  13 °C 29.58in /  1001.6hPa Calm   1.0mph /  1.6km/h 69% 0.00in /  0mm 14.0 W/m2
07:14 65.8 °F /  18.8 °C 55.4 °F /  13 °C 29.58in /  1001.6hPa Calm   1.0mph /  1.6km/h 69% 0.00in /  0mm 18.0 W/m2
07:19 65.7 °F /  18.7 °C 55.2 °F /  12.9 °C 29.58in /  1001.6hPa Calm   1.0mph /  1.6km/h 69% 0.00in /  0mm 19.0 W/m2
07:24 65.7 °F /  18.7 °C 55.2 °F /  12.9 °C 29.58in /  1001.6hPa Calm   1.0mph /  1.6km/h 69% 0.00in /  0mm 21.0 W/m2
07:29 65.7 °F /  18.7 °C 55.6 °F /  13.1 °C 29.59in /  1001.9hPa Calm     70% 0.00in /  0mm 23.0 W/m2
07:34 65.7 °F /  18.7 °C 55.6 °F /  13.1 °C 29.59in /  1001.9hPa Calm   1.0mph /  1.6km/h 70% 0.00in /  0mm 23.0 W/m2
07:39 65.7 °F /  18.7 °C 55.6 °F /  13.1 °C 29.59in /  1001.9hPa ESE 2.0mph /  3.2km/h 2.0mph /  3.2km/h 70% 0.00in /  0mm 25.0 W/m2
07:44 65.7 °F /  18.7 °C 55.2 °F /  12.9 °C 29.59in /  1001.9hPa Calm   2.0mph /  3.2km/h 69% 0.00in /  0mm 26.0 W/m2
07:49 65.8 °F /  18.8 °C 55.4 °F /  13 °C 29.59in /  1001.9hPa ESE 0.9mph /  1.4km/h 2.0mph /  3.2km/h 69% 0.00in /  0mm 28.0 W/m2
07:54 66.0 °F /  18.9 °C 55.6 °F /  13.1 °C 29.58in /  1001.6hPa Calm   1.0mph /  1.6km/h 69% 0.00in /  0mm 28.0 W/m2
08:00 66.2 °F /  19 °C 55.8 °F /  13.2 °C 29.58in /  1001.6hPa Calm   2.0mph /  3.2km/h 69% 0.00in /  0mm 33.0 W/m2
08:05 66.6 °F /  19.2 °C 55.2 °F /  12.9 °C 29.58in /  1001.6hPa Calm     67% 0.00in /  0mm 32.0 W/m2
08:10 66.7 °F /  19.3 °C 55.4 °F /  13 °C 29.58in /  1001.6hPa Calm   1.0mph /  1.6km/h 67% 0.00in /  0mm 33.0 W/m2
08:15 66.9 °F /  19.4 °C 55.2 °F /  12.9 °C 29.58in /  1001.6hPa ESE 0.9mph /  1.4km/h 2.0mph /  3.2km/h 66% 0.00in /  0mm 33.0 W/m2
08:20 67.5 °F /  19.7 °C 55.2 °F /  12.9 °C 29.58in /  1001.6hPa Calm   1.0mph /  1.6km/h 65% 0.00in /  0mm 33.0 W/m2
08:25 67.6 °F /  19.8 °C 55.4 °F /  13 °C 29.58in /  1001.6hPa Calm   2.0mph /  3.2km/h 65% 0.00in /  0mm 35.0 W/m2
08:30 67.8 °F /  19.9 °C 55.2 °F /  12.9 °C 29.58in /  1001.6hPa Calm   1.0mph /  1.6km/h 64% 0.00in /  0mm 37.0 W/m2
08:35 68.2 °F /  20.1 °C 55.0 °F /  12.8 °C 29.58in /  1001.6hPa Calm   3.0mph /  4.8km/h 63% 0.00in /  0mm 37.0 W/m2
08:41 68.7 °F /  20.4 °C 55.6 °F /  13.1 °C 29.58in /  1001.6hPa Calm   1.0mph /  1.6km/h 63% 0.00in /  0mm 39.0 W/m2
08:46 69.1 °F /  20.6 °C 55.6 °F /  13.1 °C 29.58in /  1001.6hPa Calm   1.0mph /  1.6km/h 62% 0.00in /  0mm 42.0 W/m2
08:51 69.6 °F /  20.9 °C 55.6 °F /  13.1 °C 29.58in /  1001.6hPa Calm   3.0mph /  4.8km/h 61% 0.00in /  0mm 47.0 W/m2
08:56 70.0 °F /  21.1 °C 55.4 °F /  13 °C 29.58in /  1001.6hPa Calm   1.0mph /  1.6km/h 60% 0.00in /  0mm 90.0 W/m2
09:01 70.3 °F /  21.3 °C 55.4 °F /  13 °C 29.58in /  1001.6hPa Calm   1.0mph /  1.6km/h 59% 0.00in /  0mm 503.0 W/m2
09:06 70.7 °F /  21.5 °C 55.6 °F /  13.1 °C 29.58in /  1001.6hPa Calm     59% 0.00in /  0mm 522.0 W/m2
09:11 71.4 °F /  21.9 °C 55.9 °F /  13.3 °C 29.58in /  1001.6hPa Calm   2.0mph /  3.2km/h 58% 0.00in /  0mm 538.0 W/m2
09:16 72.3 °F /  22.4 °C 55.8 °F /  13.2 °C 29.58in /  1001.6hPa Calm   2.0mph /  3.2km/h 56% 0.00in /  0mm 559.0 W/m2
09:22 73.6 °F /  23.1 °C 56.5 °F /  13.6 °C 29.58in /  1001.6hPa ENE 2.0mph /  3.2km/h 2.0mph /  3.2km/h 55% 0.00in /  0mm 578.0 W/m2
09:27 73.9 °F /  23.3 °C 55.2 °F /  12.9 °C 29.58in /  1001.6hPa SSW 0.9mph /  1.4km/h 5.0mph /  8km/h 52% 0.00in /  0mm 598.0 W/m2
09:32 74.5 °F /  23.6 °C 56.3 °F /  13.5 °C 29.58in /  1001.6hPa Calm   3.0mph /  4.8km/h 53% 0.00in /  0mm 613.0 W/m2
09:37 75.0 °F /  23.9 °C 55.6 °F /  13.1 °C 29.58in /  1001.6hPa Calm   1.0mph /  1.6km/h 51% 0.00in /  0mm 633.0 W/m2
09:42 75.6 °F /  24.2 °C 55.0 °F /  12.8 °C 29.59in /  1001.9hPa Calm   3.0mph /  4.8km/h 49% 0.00in /  0mm 650.0 W/m2
09:47 76.3 °F /  24.6 °C 55.8 °F /  13.2 °C 29.59in /  1001.9hPa Calm   2.0mph /  3.2km/h 49% 0.00in /  0mm 666.0 W/m2
09:52 76.8 °F /  24.9 °C 55.6 °F /  13.1 °C 29.59in /  1001.9hPa SSW 2.9mph /  4.7km/h 5.0mph /  8km/h 48% 0.00in /  0mm 686.0 W/m2
09:57 77.4 °F /  25.2 °C 55.6 °F /  13.1 °C 29.58in /  1001.6hPa SSW 2.0mph /  3.2km/h 5.0mph /  8km/h 47% 0.00in /  0mm 700.0 W/m2
10:03 77.9 °F /  25.5 °C 54.9 °F /  12.7 °C 29.58in /  1001.6hPa Calm   2.0mph /  3.2km/h 45% 0.00in /  0mm 717.0 W/m2
10:08 78.4 °F /  25.8 °C 55.4 °F /  13 °C 29.58in /  1001.6hPa WSW 2.0mph /  3.2km/h 5.0mph /  8km/h 45% 0.00in /  0mm 728.0 W/m2
10:13 78.6 °F /  25.9 °C 54.9 °F /  12.7 °C 29.58in /  1001.6hPa West 2.0mph /  3.2km/h 2.0mph /  3.2km/h 44% 0.00in /  0mm 747.0 W/m2
10:18 79.0 °F /  26.1 °C 54.5 °F /  12.5 °C 29.59in /  1001.9hPa SSE 0.9mph /  1.4km/h 1.0mph /  1.6km/h 43% 0.00in /  0mm 761.0 W/m2
10:24 79.9 °F /  26.6 °C 54.7 °F /  12.6 °C 29.58in /  1001.6hPa Calm   3.0mph /  4.8km/h 42% 0.00in /  0mm 788.0 W/m2
10:29 80.8 °F /  27.1 °C 54.9 °F /  12.7 °C 29.59in /  1001.9hPa SW 2.0mph /  3.2km/h 4.0mph /  6.4km/h 41% 0.00in /  0mm 800.0 W/m2
10:34 81.7 °F /  27.6 °C 52.9 °F /  11.6 °C 29.58in /  1001.6hPa SE 2.0mph /  3.2km/h 5.0mph /  8km/h 37% 0.00in /  0mm 821.0 W/m2
10:39 82.6 °F /  28.1 °C 48.0 °F /  8.9 °C 29.58in /  1001.6hPa SE 4.9mph /  7.9km/h 11.0mph /  17.7km/h 30% 0.00in /  0mm 824.0 W/m2
10:44 83.1 °F /  28.4 °C 48.6 °F /  9.2 °C 29.59in /  1001.9hPa East 4.0mph /  6.4km/h 7.0mph /  11.3km/h 30% 0.00in /  0mm 838.0 W/m2
10:49 83.8 °F /  28.8 °C 47.3 °F /  8.5 °C 29.58in /  1001.6hPa NE 2.0mph /  3.2km/h 7.0mph /  11.3km/h 28% 0.00in /  0mm 853.0 W/m2
10:53 84.6 °F /  29.2 °C 47.8 °F /  8.8 °C 29.58in /  1001.6hPa South 0.9mph /  1.4km/h 4.0mph /  6.4km/h 28% 0.00in /  0mm 872.0 W/m2
10:57 85.3 °F /  29.6 °C 47.5 °F /  8.6 °C 29.58in /  1001.6hPa East 8.1mph /  13km/h 9.0mph /  14.5km/h 27% 0.00in /  0mm 872.0 W/m2
11:02 85.5 °F /  29.7 °C 46.6 °F /  8.1 °C 29.58in /  1001.6hPa ESE 4.0mph /  6.4km/h 14.0mph /  22.5km/h 26% 0.00in /  0mm 886.0 W/m2
11:08 85.5 °F /  29.7 °C 46.6 °F /  8.1 °C 29.58in /  1001.6hPa SE 8.1mph /  13km/h 14.0mph /  22.5km/h 26% 0.00in /  0mm 900.0 W/m2
11:13 85.5 °F /  29.7 °C 46.6 °F /  8.1 °C 29.59in /  1001.9hPa SE 8.9mph /  14.3km/h 10.0mph /  16.1km/h 26% 0.00in /  0mm 919.0 W/m2
11:18 85.6 °F /  29.8 °C 46.8 °F /  8.2 °C 29.59in /  1001.9hPa NE 6.9mph /  11.1km/h 12.0mph /  19.3km/h 26% 0.00in /  0mm 926.0 W/m2
11:24 85.8 °F /  29.9 °C 45.9 °F /  7.7 °C 29.59in /  1001.9hPa North 2.0mph /  3.2km/h 11.0mph /  17.7km/h 25% 0.00in /  0mm 947.0 W/m2
11:29 86.2 °F /  30.1 °C 46.2 °F /  7.9 °C 29.58in /  1001.6hPa Calm   11.0mph /  17.7km/h 25% 0.00in /  0mm 942.0 W/m2
11:34 86.5 °F /  30.3 °C 46.6 °F /  8.1 °C 29.58in /  1001.6hPa SE 4.9mph /  7.9km/h 11.0mph /  17.7km/h 25% 0.00in /  0mm 958.0 W/m2
11:39 87.1 °F /  30.6 °C 46.9 °F /  8.3 °C 29.59in /  1001.9hPa NE 8.1mph /  13km/h 11.0mph /  17.7km/h 25% 0.00in /  0mm 967.0 W/m2
11:44 87.4 °F /  30.8 °C 46.2 °F /  7.9 °C 29.58in /  1001.6hPa East 0.9mph /  1.4km/h 11.0mph /  17.7km/h 24% 0.00in /  0mm 972.0 W/m2
11:49 88.0 °F /  31.1 °C 46.6 °F /  8.1 °C 29.57in /  1001.2hPa NNE 4.0mph /  6.4km/h 13.0mph /  20.9km/h 24% 0.00in /  0mm 1018.0 W/m2
11:54 88.3 °F /  31.3 °C 45.9 °F /  7.7 °C 29.58in /  1001.6hPa NE 4.9mph /  7.9km/h 14.0mph /  22.5km/h 23% 0.00in /  0mm 1013.0 W/m2
12:00 88.3 °F /  31.3 °C 45.9 °F /  7.7 °C 29.57in /  1001.2hPa NE 8.1mph /  13km/h 10.0mph /  16.1km/h 23% 0.00in /  0mm 993.0 W/m2
12:05 88.2 °F /  31.2 °C 46.8 °F /  8.2 °C 29.57in /  1001.2hPa NE 4.9mph /  7.9km/h 7.0mph /  11.3km/h 24% 0.00in /  0mm 1034.0 W/m2
12:10 88.5 °F /  31.4 °C 47.1 °F /  8.4 °C 29.57in /  1001.2hPa ESE 4.0mph /  6.4km/h 8.0mph /  12.9km/h 24% 0.00in /  0mm 1065.0 W/m2
12:15 88.9 °F /  31.6 °C 45.1 °F /  7.3 °C 29.57in /  1001.2hPa SE 2.9mph /  4.7km/h 5.0mph /  8km/h 22% 0.00in /  0mm 1071.0 W/m2
12:20 88.9 °F /  31.6 °C 46.2 °F /  7.9 °C 29.57in /  1001.2hPa SSW 4.9mph /  7.9km/h 7.0mph /  11.3km/h 23% 0.00in /  0mm 1111.0 W/m2
12:25 88.9 °F /  31.6 °C 46.2 °F /  7.9 °C 29.57in /  1001.2hPa ESE 6.9mph /  11.1km/h 11.0mph /  17.7km/h 23% 0.00in /  0mm 1102.0 W/m2
12:31 88.9 °F /  31.6 °C 45.1 °F /  7.3 °C 29.57in /  1001.2hPa SE 4.9mph /  7.9km/h 10.0mph /  16.1km/h 22% 0.00in /  0mm 214.0 W/m2
12:36 88.7 °F /  31.5 °C 46.2 °F /  7.9 °C 29.57in /  1001.2hPa NNE 6.9mph /  11.1km/h 12.0mph /  19.3km/h 23% 0.00in /  0mm 1158.0 W/m2
12:41 88.5 °F /  31.4 °C 47.1 °F /  8.4 °C 29.57in /  1001.2hPa SE 2.9mph /  4.7km/h 14.0mph /  22.5km/h 24% 0.00in /  0mm 257.0 W/m2
12:46 88.5 °F /  31.4 °C 46.0 °F /  7.8 °C 29.57in /  1001.2hPa SE 8.9mph /  14.3km/h 12.0mph /  19.3km/h 23% 0.00in /  0mm 1155.0 W/m2
12:52 88.7 °F /  31.5 °C 46.2 °F /  7.9 °C 29.57in /  1001.2hPa North 4.0mph /  6.4km/h 9.0mph /  14.5km/h 23% 0.00in /  0mm 1225.0 W/m2
12:57 89.4 °F /  31.9 °C 44.4 °F /  6.9 °C 29.56in /  1000.9hPa ESE 10.1mph /  16.3km/h 13.0mph /  20.9km/h 21% 0.00in /  0mm 1253.0 W/m2
13:03 89.8 °F /  32.1 °C 45.9 °F /  7.7 °C 29.56in /  1000.9hPa SE 6.0mph /  9.7km/h 9.0mph /  14.5km/h 22% 0.00in /  0mm 1197.0 W/m2
13:08 89.8 °F /  32.1 °C 45.9 °F /  7.7 °C 29.56in /  1000.9hPa East 8.9mph /  14.3km/h 14.0mph /  22.5km/h 22% 0.00in /  0mm 1148.0 W/m2
13:13 89.8 °F /  32.1 °C 43.3 °F /  6.3 °C 29.56in /  1000.9hPa ENE 4.0mph /  6.4km/h 14.0mph /  22.5km/h 20% 0.00in /  0mm 703.0 W/m2
13:18 89.8 °F /  32.1 °C 45.9 °F /  7.7 °C 29.56in /  1000.9hPa SE 6.0mph /  9.7km/h 14.0mph /  22.5km/h 22% 0.00in /  0mm 1206.0 W/m2
13:23 89.8 °F /  32.1 °C 44.6 °F /  7 °C 29.55in /  1000.6hPa NE 8.9mph /  14.3km/h 10.0mph /  16.1km/h 21% 0.00in /  0mm 1225.0 W/m2
13:28 90.0 °F /  32.2 °C 44.8 °F /  7.1 °C 29.56in /  1000.9hPa East 6.9mph /  11.1km/h 10.0mph /  16.1km/h 21% 0.00in /  0mm 385.0 W/m2
13:34 90.1 °F /  32.3 °C 45.0 °F /  7.2 °C 29.55in /  1000.6hPa NE 4.9mph /  7.9km/h 13.0mph /  20.9km/h 21% 0.00in /  0mm 1194.0 W/m2
13:39 90.5 °F /  32.5 °C 45.3 °F /  7.4 °C 29.55in /  1000.6hPa ESE 4.9mph /  7.9km/h 12.0mph /  19.3km/h 21% 0.00in /  0mm 1246.0 W/m2
13:44 90.1 °F /  32.3 °C 45.0 °F /  7.2 °C 29.55in /  1000.6hPa SE 8.1mph /  13km/h 11.0mph /  17.7km/h 21% 0.00in /  0mm 360.0 W/m2
13:49 89.4 °F /  31.9 °C 44.4 °F /  6.9 °C 29.54in /  1000.2hPa ESE 4.0mph /  6.4km/h 9.0mph /  14.5km/h 21% 0.00in /  0mm 1178.0 W/m2
13:54 89.4 °F /  31.9 °C 43.0 °F /  6.1 °C 29.54in /  1000.2hPa ESE 11.0mph /  17.7km/h 14.0mph /  22.5km/h 20% 0.00in /  0mm 1211.0 W/m2
13:59 90.0 °F /  32.2 °C 42.3 °F /  5.7 °C 29.54in /  1000.2hPa WSW 6.9mph /  11.1km/h 8.0mph /  12.9km/h 19% 0.00in /  0mm 1234.0 W/m2
14:04 89.8 °F /  32.1 °C 42.1 °F /  5.6 °C 29.54in /  1000.2hPa ESE 2.0mph /  3.2km/h 10.0mph /  16.1km/h 19% 0.00in /  0mm 341.0 W/m2
14:09 89.2 °F /  31.8 °C 41.5 °F /  5.3 °C 29.53in /  999.9hPa North 0.9mph /  1.4km/h 6.0mph /  9.7km/h 19% 0.00in /  0mm 304.0 W/m2
14:15 89.1 °F /  31.7 °C 42.8 °F /  6 °C 29.53in /  999.9hPa SE 4.9mph /  7.9km/h 7.0mph /  11.3km/h 20% 0.00in /  0mm 327.0 W/m2
14:20 88.9 °F /  31.6 °C 42.6 °F /  5.9 °C 29.53in /  999.9hPa Calm   4.0mph /  6.4km/h 20% 0.00in /  0mm 255.0 W/m2
14:25 88.5 °F /  31.4 °C 44.8 °F /  7.1 °C 29.53in /  999.9hPa SSE 6.0mph /  9.7km/h 9.0mph /  14.5km/h 22% 0.00in /  0mm 345.0 W/m2
14:30 88.3 °F /  31.3 °C 43.5 °F /  6.4 °C 29.52in /  999.5hPa SE 4.9mph /  7.9km/h 15.0mph /  24.1km/h 21% 0.00in /  0mm 387.0 W/m2
14:35 88.5 °F /  31.4 °C 43.5 °F /  6.4 °C 29.52in /  999.5hPa SE 4.0mph /  6.4km/h 11.0mph /  17.7km/h 21% 0.00in /  0mm 313.0 W/m2
14:40 88.2 °F /  31.2 °C 43.3 °F /  6.3 °C 29.52in /  999.5hPa SE 6.9mph /  11.1km/h 9.0mph /  14.5km/h 21% 0.00in /  0mm 404.0 W/m2
14:45 88.2 °F /  31.2 °C 43.3 °F /  6.3 °C 29.52in /  999.5hPa Calm   5.0mph /  8km/h 21% 0.00in /  0mm 315.0 W/m2
14:50 88.3 °F /  31.3 °C 43.5 °F /  6.4 °C 29.52in /  999.5hPa NE 2.0mph /  3.2km/h 10.0mph /  16.1km/h 21% 0.00in /  0mm 403.0 W/m2
14:55 88.3 °F /  31.3 °C 44.6 °F /  7 °C 29.51in /  999.2hPa North 2.0mph /  3.2km/h 5.0mph /  8km/h 22% 0.00in /  0mm 371.0 W/m2
15:00 88.5 °F /  31.4 °C 43.5 °F /  6.4 °C 29.51in /  999.2hPa SW 0.9mph /  1.4km/h 5.0mph /  8km/h 21% 0.00in /  0mm 371.0 W/m2
15:05 89.1 °F /  31.7 °C 45.3 °F /  7.4 °C 29.51in /  999.2hPa SSE 0.9mph /  1.4km/h 8.0mph /  12.9km/h 22% 0.00in /  0mm 1107.0 W/m2
15:11 89.8 °F /  32.1 °C 45.9 °F /  7.7 °C 29.50in /  998.9hPa ESE 4.9mph /  7.9km/h 13.0mph /  20.9km/h 22% 0.00in /  0mm 285.0 W/m2
15:16 89.8 °F /  32.1 °C 44.6 °F /  7 °C 29.50in /  998.9hPa ESE 6.9mph /  11.1km/h 7.0mph /  11.3km/h 21% 0.00in /  0mm 209.0 W/m2
15:21 89.2 °F /  31.8 °C 45.5 °F /  7.5 °C 29.50in /  998.9hPa ESE 0.9mph /  1.4km/h 11.0mph /  17.7km/h 22% 0.00in /  0mm 213.0 W/m2
15:26 88.7 °F /  31.5 °C 45.0 °F /  7.2 °C 29.50in /  998.9hPa SE 2.9mph /  4.7km/h 11.0mph /  17.7km/h 22% 0.00in /  0mm 264.0 W/m2
15:31 88.2 °F /  31.2 °C 44.6 °F /  7 °C 29.50in /  998.9hPa East 4.9mph /  7.9km/h 10.0mph /  16.1km/h 22% 0.00in /  0mm 329.0 W/m2
15:36 88.3 °F /  31.3 °C 44.6 °F /  7 °C 29.49in /  998.5hPa ESE 2.9mph /  4.7km/h 7.0mph /  11.3km/h 22% 0.00in /  0mm 329.0 W/m2
15:41 89.1 °F /  31.7 °C 45.3 °F /  7.4 °C 29.49in /  998.5hPa SE 2.9mph /  4.7km/h 8.0mph /  12.9km/h 22% 0.00in /  0mm 954.0 W/m2
15:47 89.6 °F /  32 °C 44.4 °F /  6.9 °C 29.49in /  998.5hPa Calm   4.0mph /  6.4km/h 21% 0.00in /  0mm 923.0 W/m2
15:52 90.1 °F /  32.3 °C 45.0 °F /  7.2 °C 29.48in /  998.2hPa Calm   2.0mph /  3.2km/h 21% 0.00in /  0mm 940.0 W/m2
15:58 90.9 °F /  32.7 °C 45.5 °F /  7.5 °C 29.48in /  998.2hPa ESE 0.9mph /  1.4km/h 6.0mph /  9.7km/h 21% 0.00in /  0mm 334.0 W/m2
16:03 91.6 °F /  33.1 °C 44.8 °F /  7.1 °C 29.48in /  998.2hPa East 2.0mph /  3.2km/h 11.0mph /  17.7km/h 20% 0.00in /  0mm 891.0 W/m2
16:08 91.8 °F /  33.2 °C 45.0 °F /  7.2 °C 29.48in /  998.2hPa ESE 2.9mph /  4.7km/h 8.0mph /  12.9km/h 20% 0.00in /  0mm 265.0 W/m2
16:13 91.6 °F /  33.1 °C 43.5 °F /  6.4 °C 29.48in /  998.2hPa SE 2.0mph /  3.2km/h 10.0mph /  16.1km/h 19% 0.00in /  0mm 225.0 W/m2
16:18 90.7 °F /  32.6 °C 44.1 °F /  6.7 °C 29.48in /  998.2hPa SSE 4.0mph /  6.4km/h 8.0mph /  12.9km/h 20% 0.00in /  0mm 209.0 W/m2
16:23 90.0 °F /  32.2 °C 43.5 °F /  6.4 °C 29.48in /  998.2hPa Calm   5.0mph /  8km/h 20% 0.00in /  0mm 190.0 W/m2
16:29 89.2 °F /  31.8 °C 41.5 °F /  5.3 °C 29.48in /  998.2hPa South 2.0mph /  3.2km/h 6.0mph /  9.7km/h 19% 0.00in /  0mm 197.0 W/m2
16:34 88.9 °F /  31.6 °C 42.6 °F /  5.9 °C 29.47in /  997.9hPa SE 4.0mph /  6.4km/h 9.0mph /  14.5km/h 20% 0.00in /  0mm 190.0 W/m2
16:39 88.3 °F /  31.3 °C 42.3 °F /  5.7 °C 29.47in /  997.9hPa ESE 4.0mph /  6.4km/h 8.0mph /  12.9km/h 20% 0.00in /  0mm 229.0 W/m2
16:44 88.2 °F /  31.2 °C 43.3 °F /  6.3 °C 29.47in /  997.9hPa South 0.9mph /  1.4km/h 4.0mph /  6.4km/h 21% 0.00in /  0mm 223.0 W/m2
16:50 88.0 °F /  31.1 °C 41.9 °F /  5.5 °C 29.47in /  997.9hPa Calm   5.0mph /  8km/h 20% 0.00in /  0mm 216.0 W/m2
16:55 88.2 °F /  31.2 °C 42.1 °F /  5.6 °C 29.47in /  997.9hPa Calm   8.0mph /  12.9km/h 20% 0.00in /  0mm 216.0 W/m2
17:00 88.2 °F /  31.2 °C 43.3 °F /  6.3 °C 29.47in /  997.9hPa South 2.0mph /  3.2km/h 6.0mph /  9.7km/h 21% 0.00in /  0mm 202.0 W/m2
17:05 88.3 °F /  31.3 °C 43.5 °F /  6.4 °C 29.47in /  997.9hPa SE 8.9mph /  14.3km/h 10.0mph /  16.1km/h 21% 0.00in /  0mm 571.0 W/m2
17:10 89.1 °F /  31.7 °C 42.8 °F /  6 °C 29.47in /  997.9hPa SSE 0.9mph /  1.4km/h 9.0mph /  14.5km/h 20% 0.00in /  0mm 538.0 W/m2
17:15 89.6 °F /  32 °C 41.9 °F /  5.5 °C 29.47in /  997.9hPa South 4.0mph /  6.4km/h 6.0mph /  9.7km/h 19% 0.00in /  0mm 181.0 W/m2
17:20 89.4 °F /  31.9 °C 41.7 °F /  5.4 °C 29.47in /  997.9hPa ESE 4.0mph /  6.4km/h 6.0mph /  9.7km/h 19% 0.00in /  0mm 183.0 W/m2
17:25 89.4 °F /  31.9 °C 43.0 °F /  6.1 °C 29.47in /  997.9hPa SSW 0.9mph /  1.4km/h 5.0mph /  8km/h 20% 0.00in /  0mm 504.0 W/m2
17:30 89.8 °F /  32.1 °C 43.3 °F /  6.3 °C 29.47in /  997.9hPa South 2.9mph /  4.7km/h 6.0mph /  9.7km/h 20% 0.00in /  0mm 149.0 W/m2
17:36 89.2 °F /  31.8 °C 43.0 °F /  6.1 °C 29.47in /  997.9hPa SSE 0.9mph /  1.4km/h 8.0mph /  12.9km/h 20% 0.00in /  0mm 144.0 W/m2
17:41 88.9 °F /  31.6 °C 42.6 °F /  5.9 °C 29.47in /  997.9hPa SSW 0.9mph /  1.4km/h 8.0mph /  12.9km/h 20% 0.00in /  0mm 135.0 W/m2
17:46 88.5 °F /  31.4 °C 43.5 °F /  6.4 °C 29.46in /  997.5hPa SSE 2.0mph /  3.2km/h 3.0mph /  4.8km/h 21% 0.00in /  0mm 104.0 W/m2
17:51 88.2 °F /  31.2 °C 43.3 °F /  6.3 °C 29.47in /  997.9hPa SW 2.9mph /  4.7km/h 5.0mph /  8km/h 21% 0.00in /  0mm 84.0 W/m2
17:56 87.6 °F /  30.9 °C 42.8 °F /  6 °C 29.47in /  997.9hPa SSE 4.0mph /  6.4km/h 6.0mph /  9.7km/h 21% 0.00in /  0mm 77.0 W/m2
18:01 87.3 °F /  30.7 °C 43.7 °F /  6.5 °C 29.47in /  997.9hPa SE 2.0mph /  3.2km/h 6.0mph /  9.7km/h 22% 0.00in /  0mm 70.0 W/m2
18:06 87.1 °F /  30.6 °C 43.7 °F /  6.5 °C 29.47in /  997.9hPa SSE 0.9mph /  1.4km/h 8.0mph /  12.9km/h 22% 0.00in /  0mm 62.0 W/m2
18:11 86.7 °F /  30.4 °C 42.1 °F /  5.6 °C 29.47in /  997.9hPa SSW 2.0mph /  3.2km/h 10.0mph /  16.1km/h 21% 0.00in /  0mm 56.0 W/m2
18:16 86.4 °F /  30.2 °C 41.9 °F /  5.5 °C 29.47in /  997.9hPa Calm   5.0mph /  8km/h 21% 0.00in /  0mm 49.0 W/m2
18:22 86.2 °F /  30.1 °C 42.8 °F /  6 °C 29.47in /  997.9hPa SE 4.0mph /  6.4km/h 4.0mph /  6.4km/h 22% 0.00in /  0mm 53.0 W/m2
18:27 85.8 °F /  29.9 °C 42.6 °F /  5.9 °C 29.47in /  997.9hPa SSE 0.9mph /  1.4km/h 4.0mph /  6.4km/h 22% 0.00in /  0mm 53.0 W/m2
18:32 85.8 °F /  29.9 °C 42.6 °F /  5.9 °C 29.47in /  997.9hPa Calm   5.0mph /  8km/h 22% 0.00in /  0mm 47.0 W/m2
18:37 85.6 °F /  29.8 °C 42.4 °F /  5.8 °C 29.47in /  997.9hPa SE 2.9mph /  4.7km/h 7.0mph /  11.3km/h 22% 0.00in /  0mm 42.0 W/m2
18:42 85.6 °F /  29.8 °C 42.4 °F /  5.8 °C 29.47in /  997.9hPa SSE 4.0mph /  6.4km/h 6.0mph /  9.7km/h 22% 0.00in /  0mm 33.0 W/m2
18:47 85.5 °F /  29.7 °C 42.3 °F /  5.7 °C 29.47in /  997.9hPa SE 6.9mph /  11.1km/h 7.0mph /  11.3km/h 22% 0.00in /  0mm 28.0 W/m2
18:52 85.3 °F /  29.6 °C 42.1 °F /  5.6 °C 29.47in /  997.9hPa SE 2.9mph /  4.7km/h 6.0mph /  9.7km/h 22% 0.00in /  0mm 28.0 W/m2
18:57 85.3 °F /  29.6 °C 42.1 °F /  5.6 °C 29.48in /  998.2hPa SE 4.9mph /  7.9km/h 5.0mph /  8km/h 22% 0.00in /  0mm 39.0 W/m2
19:02 85.5 °F /  29.7 °C 42.3 °F /  5.7 °C 29.48in /  998.2hPa East 4.0mph /  6.4km/h 7.0mph /  11.3km/h 22% 0.00in /  0mm 23.0 W/m2
19:08 85.5 °F /  29.7 °C 42.3 °F /  5.7 °C 29.48in /  998.2hPa South 4.0mph /  6.4km/h 7.0mph /  11.3km/h 22% 0.00in /  0mm 16.0 W/m2
19:14 85.3 °F /  29.6 °C 42.1 °F /  5.6 °C 29.48in /  998.2hPa SSE 4.0mph /  6.4km/h 4.0mph /  6.4km/h 22% 0.00in /  0mm 11.0 W/m2
19:19 85.3 °F /  29.6 °C 42.1 °F /  5.6 °C 29.48in /  998.2hPa ESE 6.0mph /  9.7km/h 6.0mph /  9.7km/h 22% 0.00in /  0mm 7.0 W/m2
19:24 84.9 °F /  29.4 °C 41.9 °F /  5.5 °C 29.49in /  998.5hPa SE 2.0mph /  3.2km/h 4.0mph /  6.4km/h 22% 0.00in /  0mm 5.0 W/m2
19:29 84.7 °F /  29.3 °C 42.8 °F /  6 °C 29.49in /  998.5hPa SSW 2.0mph /  3.2km/h 4.0mph /  6.4km/h 23% 0.00in /  0mm 0.0 W/m2
19:34 84.6 °F /  29.2 °C 42.6 °F /  5.9 °C 29.49in /  998.5hPa SE 0.9mph /  1.4km/h 5.0mph /  8km/h 23% 0.00in /  0mm 0.0 W/m2
19:39 84.4 °F /  29.1 °C 42.6 °F /  5.9 °C 29.49in /  998.5hPa SSE 0.9mph /  1.4km/h 3.0mph /  4.8km/h 23% 0.00in /  0mm 0.0 W/m2
19:44 84.2 °F /  29 °C 42.4 °F /  5.8 °C 29.49in /  998.5hPa Calm   5.0mph /  8km/h 23% 0.00in /  0mm 0.0 W/m2
19:49 84.0 °F /  28.9 °C 42.3 °F /  5.7 °C 29.50in /  998.9hPa Calm   1.0mph /  1.6km/h 23% 0.00in /  0mm 0.0 W/m2
19:55 83.8 °F /  28.8 °C 46.2 °F /  7.9 °C 29.50in /  998.9hPa WSW 0.9mph /  1.4km/h 2.0mph /  3.2km/h 27% 0.00in /  0mm 0.0 W/m2
20:00 83.7 °F /  28.7 °C 49.8 °F /  9.9 °C 29.50in /  998.9hPa WSW 2.0mph /  3.2km/h 3.0mph /  4.8km/h 31% 0.00in /  0mm 0.0 W/m2
20:05 83.1 °F /  28.4 °C 50.2 °F /  10.1 °C 29.50in /  998.9hPa West 0.9mph /  1.4km/h 2.0mph /  3.2km/h 32% 0.00in /  0mm 0.0 W/m2
20:10 82.6 °F /  28.1 °C 52.2 °F /  11.2 °C 29.50in /  998.9hPa WSW 4.0mph /  6.4km/h 6.0mph /  9.7km/h 35% 0.00in /  0mm 0.0 W/m2
20:15 81.7 °F /  27.6 °C 52.9 °F /  11.6 °C 29.51in /  999.2hPa South 4.9mph /  7.9km/h 13.0mph /  20.9km/h 37% 0.00in /  0mm 0.0 W/m2
20:20 80.8 °F /  27.1 °C 52.9 °F /  11.6 °C 29.51in /  999.2hPa West 8.1mph /  13km/h 12.0mph /  19.3km/h 38% 0.00in /  0mm 0.0 W/m2
20:25 79.9 °F /  26.6 °C 52.7 °F /  11.5 °C 29.51in /  999.2hPa SW 4.9mph /  7.9km/h 10.0mph /  16.1km/h 39% 0.00in /  0mm 0.0 W/m2
20:30 79.5 °F /  26.4 °C 52.3 °F /  11.3 °C 29.51in /  999.2hPa West 2.9mph /  4.7km/h 10.0mph /  16.1km/h 39% 0.00in /  0mm 0.0 W/m2
20:35 79.2 °F /  26.2 °C 52.7 °F /  11.5 °C 29.52in /  999.5hPa WSW 2.9mph /  4.7km/h 6.0mph /  9.7km/h 40% 0.00in /  0mm 0.0 W/m2
20:40 79.0 °F /  26.1 °C 52.5 °F /  11.4 °C 29.52in /  999.5hPa Calm   8.0mph /  12.9km/h 40% 0.00in /  0mm 0.0 W/m2
20:46 78.6 °F /  25.9 °C 52.3 °F /  11.3 °C 29.52in /  999.5hPa SW 6.0mph /  9.7km/h 7.0mph /  11.3km/h 40% 0.00in /  0mm 0.0 W/m2
20:51 78.4 °F /  25.8 °C 52.7 °F /  11.5 °C 29.52in /  999.5hPa SW 4.9mph /  7.9km/h 9.0mph /  14.5km/h 41% 0.00in /  0mm 0.0 W/m2
20:56 78.3 °F /  25.7 °C 52.7 °F /  11.5 °C 29.53in /  999.9hPa WSW 2.0mph /  3.2km/h 8.0mph /  12.9km/h 41% 0.00in /  0mm 0.0 W/m2
21:01 78.1 °F /  25.6 °C 52.5 °F /  11.4 °C 29.53in /  999.9hPa SW 0.9mph /  1.4km/h 8.0mph /  12.9km/h 41% 0.00in /  0mm 0.0 W/m2
21:07 77.7 °F /  25.4 °C 52.2 °F /  11.2 °C 29.53in /  999.9hPa Calm   9.0mph /  14.5km/h 41% 0.00in /  0mm 0.0 W/m2
21:12 77.5 °F /  25.3 °C 52.7 °F /  11.5 °C 29.53in /  999.9hPa SW 0.9mph /  1.4km/h 9.0mph /  14.5km/h 42% 0.00in /  0mm 0.0 W/m2
21:17 77.4 °F /  25.2 °C 52.5 °F /  11.4 °C 29.53in /  999.9hPa West 4.9mph /  7.9km/h 6.0mph /  9.7km/h 42% 0.00in /  0mm 0.0 W/m2
21:22 77.2 °F /  25.1 °C 52.3 °F /  11.3 °C 29.53in /  999.9hPa Calm   9.0mph /  14.5km/h 42% 0.00in /  0mm 0.0 W/m2
21:27 77.2 °F /  25.1 °C 52.9 °F /  11.6 °C 29.54in /  1000.2hPa SW 2.9mph /  4.7km/h 3.0mph /  4.8km/h 43% 0.00in /  0mm 0.0 W/m2
21:32 76.8 °F /  24.9 °C 52.7 °F /  11.5 °C 29.54in /  1000.2hPa SW 2.9mph /  4.7km/h 7.0mph /  11.3km/h 43% 0.00in /  0mm 0.0 W/m2
21:38 76.6 °F /  24.8 °C 52.5 °F /  11.4 °C 29.54in /  1000.2hPa WSW 0.9mph /  1.4km/h 7.0mph /  11.3km/h 43% 0.00in /  0mm 0.0 W/m2
21:43 76.5 °F /  24.7 °C 52.3 °F /  11.3 °C 29.54in /  1000.2hPa SW 0.9mph /  1.4km/h 2.0mph /  3.2km/h 43% 0.00in /  0mm 0.0 W/m2
21:48 76.5 °F /  24.7 °C 52.3 °F /  11.3 °C 29.54in /  1000.2hPa SW 2.0mph /  3.2km/h 6.0mph /  9.7km/h 43% 0.00in /  0mm 0.0 W/m2
21:53 76.5 °F /  24.7 °C 52.3 °F /  11.3 °C 29.54in /  1000.2hPa WSW 2.0mph /  3.2km/h 5.0mph /  8km/h 43% 0.00in /  0mm 0.0 W/m2
21:58 76.3 °F /  24.6 °C 52.2 °F /  11.2 °C 29.55in /  1000.6hPa WSW 2.0mph /  3.2km/h 3.0mph /  4.8km/h 43% 0.00in /  0mm 0.0 W/m2
22:03 76.3 °F /  24.6 °C 52.2 °F /  11.2 °C 29.55in /  1000.6hPa Calm   2.0mph /  3.2km/h 43% 0.00in /  0mm 0.0 W/m2
22:08 75.9 °F /  24.4 °C 51.8 °F /  11 °C 29.55in /  1000.6hPa Calm   3.0mph /  4.8km/h 43% 0.00in /  0mm 0.0 W/m2
22:13 75.9 °F /  24.4 °C 51.8 °F /  11 °C 29.55in /  1000.6hPa South 0.9mph /  1.4km/h 7.0mph /  11.3km/h 43% 0.00in /  0mm 0.0 W/m2
22:18 75.7 °F /  24.3 °C 51.6 °F /  10.9 °C 29.55in /  1000.6hPa WSW 2.0mph /  3.2km/h 3.0mph /  4.8km/h 43% 0.00in /  0mm 0.0 W/m2
22:23 75.6 °F /  24.2 °C 52.2 °F /  11.2 °C 29.55in /  1000.6hPa Calm   1.0mph /  1.6km/h 44% 0.00in /  0mm 0.0 W/m2
22:29 75.6 °F /  24.2 °C 52.2 °F /  11.2 °C 29.56in /  1000.9hPa Calm   1.0mph /  1.6km/h 44% 0.00in /  0mm 0.0 W/m2
22:34 75.4 °F /  24.1 °C 52.0 °F /  11.1 °C 29.55in /  1000.6hPa Calm   4.0mph /  6.4km/h 44% 0.00in /  0mm 0.0 W/m2
22:39 75.0 °F /  23.9 °C 51.6 °F /  10.9 °C 29.56in /  1000.9hPa Calm   1.0mph /  1.6km/h 44% 0.00in /  0mm 0.0 W/m2
22:44 75.0 °F /  23.9 °C 51.6 °F /  10.9 °C 29.56in /  1000.9hPa Calm     44% 0.00in /  0mm 0.0 W/m2
22:49 74.8 °F /  23.8 °C 52.2 °F /  11.2 °C 29.55in /  1000.6hPa SE 2.0mph /  3.2km/h 2.0mph /  3.2km/h 45% 0.00in /  0mm 0.0 W/m2
22:54 74.7 °F /  23.7 °C 52.0 °F /  11.1 °C 29.56in /  1000.9hPa Calm   2.0mph /  3.2km/h 45% 0.00in /  0mm 0.0 W/m2
22:59 74.3 °F /  23.5 °C 51.6 °F /  10.9 °C 29.56in /  1000.9hPa SSE 0.9mph /  1.4km/h 2.0mph /  3.2km/h 45% 0.00in /  0mm 0.0 W/m2
23:05 74.1 °F /  23.4 °C 52.0 °F /  11.1 °C 29.56in /  1000.9hPa Calm   3.0mph /  4.8km/h 46% 0.00in /  0mm 0.0 W/m2
23:10 73.9 °F /  23.3 °C 51.8 °F /  11 °C 29.55in /  1000.6hPa Calm   1.0mph /  1.6km/h 46% 0.00in /  0mm 0.0 W/m2
23:16 73.8 °F /  23.2 °C 51.6 °F /  10.9 °C 29.56in /  1000.9hPa Calm     46% 0.00in /  0mm 0.0 W/m2
23:21 73.6 °F /  23.1 °C 51.4 °F /  10.8 °C 29.56in /  1000.9hPa Calm     46% 0.00in /  0mm 0.0 W/m2
23:26 73.2 °F /  22.9 °C 51.3 °F /  10.7 °C 29.56in /  1000.9hPa Calm     46% 0.00in /  0mm 0.0 W/m2
23:31 73.0 °F /  22.8 °C 51.6 °F /  10.9 °C 29.57in /  1001.2hPa Calm   1.0mph /  1.6km/h 47% 0.00in /  0mm 0.0 W/m2
23:36 72.9 °F /  22.7 °C 51.4 °F /  10.8 °C 29.56in /  1000.9hPa Calm   4.0mph /  6.4km/h 47% 0.00in /  0mm 0.0 W/m2
23:41 72.7 °F /  22.6 °C 51.3 °F /  10.7 °C 29.56in /  1000.9hPa Calm     47% 0.00in /  0mm 0.0 W/m2
23:46 72.7 °F /  22.6 °C 51.3 °F /  10.7 °C 29.56in /  1000.9hPa South 2.0mph /  3.2km/h 3.0mph /  4.8km/h 47% 0.00in /  0mm 0.0 W/m2
23:51 72.7 °F /  22.6 °C 51.3 °F /  10.7 °C 29.56in /  1000.9hPa SSE 4.0mph /  6.4km/h 5.0mph /  8km/h 47% 0.00in /  0mm 0.0 W/m2
23:56 72.7 °F /  22.6 °C 51.3 °F /  10.7 °C 29.56in /  1000.9hPa SE 2.0mph /  3.2km/h 8.0mph /  12.9km/h 47% 0.00in /  0mm 0.0 W/m2
Olympia, Windhoek, Namibia
Compliments of Weather Underground - 3.25 mb